Time;durP1;ratioP1;P1;durP2;ratioP2;P2;SDS_P1;SDS_P2;PMS_P1;PMS_P2;Temp;Humidity;BMP_temperature;BMP_pressure;BME280_temperature;BME280_humidity;BME280_pressure;Samples;Min_cycle;Max_cycle;Signal;HPM_P1;HPM_P2
2023/11/04 00:00:33;;;;;;;1.73;0.95;;;;;;;;;;4952516;28;20483;-79
2023/11/04 00:02:58;;;;;;;2.63;1.08;;;;;;;;;;4957351;28;20026;-78
2023/11/04 00:05:23;;;;;;;1.85;0.88;;;;;;;;;;4968692;28;20031;-79
2023/11/04 00:07:49;;;;;;;2.95;0.90;;;;;;;;;;4955278;28;20035;-77
2023/11/04 00:10:15;;;;;;;2.63;1.00;;;;;;;;;;4952261;28;20023;-77
2023/11/04 00:12:40;;;;;;;1.48;0.80;;;;;;;;;;4972460;28;20515;-76
2023/11/04 00:15:06;;;;;;;3.47;0.98;;;;;;;;;;4954556;28;20039;-76
2023/11/04 00:17:31;;;;;;;1.67;0.90;;;;;;;;;;4967605;28;22477;-77
2023/11/04 00:19:57;;;;;;;1.27;0.80;;;;;;;;;;4970525;28;20312;-76
2023/11/04 00:22:22;;;;;;;3.70;1.20;;;;;;;;;;4955887;28;20113;-77
2023/11/04 00:24:52;;;;;;;1.95;0.90;;;;;;;;;;4976665;28;20031;-76
2023/11/04 00:27:20;;;;;;;1.90;1.05;;;;;;;;;;4971229;28;20090;-76
2023/11/04 00:29:47;;;;;;;2.13;0.80;;;;;;;;;;4972134;28;20085;-76
2023/11/04 00:32:12;;;;;;;2.80;0.95;;;;;;;;;;4970324;28;20209;-76
2023/11/04 00:34:38;;;;;;;2.08;0.90;;;;;;;;;;4971828;28;20160;-76
2023/11/04 00:37:03;;;;;;;3.40;1.00;;;;;;;;;;4969441;28;20026;-76
2023/11/04 00:39:29;;;;;;;1.50;0.93;;;;;;;;;;4972377;28;20113;-76
2023/11/04 00:41:54;;;;;;;2.35;1.05;;;;;;;;;;4971426;28;20551;-76
2023/11/04 00:44:20;;;;;;;2.88;1.17;;;;;;;;;;4963109;28;20401;-76
2023/11/04 00:46:46;;;;;;;3.05;0.90;;;;;;;;;;4971385;28;20033;-76
2023/11/04 00:49:11;;;;;;;1.67;1.00;;;;;;;;;;4971654;28;20035;-76
2023/11/04 00:51:36;;;;;;;2.10;1.08;;;;;;;;;;4972931;28;20038;-77
2023/11/04 00:54:03;;;;;;;2.13;1.05;;;;;;;;;;4957179;28;20026;-77
2023/11/04 00:56:29;;;;;;;2.45;1.10;;;;;;;;;;4976063;28;20026;-77
2023/11/04 00:58:54;;;;;;;2.03;1.00;;;;;;;;;;4959086;28;20025;-76
2023/11/04 01:01:19;;;;;;;4.72;1.35;;;;;;;;;;4974830;28;20033;-76
2023/11/04 01:03:45;;;;;;;2.55;1.10;;;;;;;;;;4970397;28;20054;-75
2023/11/04 01:06:10;;;;;;;1.73;1.00;;;;;;;;;;4972393;28;20034;-76
2023/11/04 01:08:38;;;;;;;1.77;0.90;;;;;;;;;;4988942;28;20587;-76
2023/11/04 01:11:04;;;;;;;2.35;1.08;;;;;;;;;;4957096;28;20477;-76
2023/11/04 01:13:30;;;;;;;3.53;1.30;;;;;;;;;;4960690;28;20026;-76
2023/11/04 01:15:55;;;;;;;1.38;0.98;;;;;;;;;;4981234;28;20046;-76
2023/11/04 01:18:21;;;;;;;1.85;1.00;;;;;;;;;;4979654;28;20109;-76
2023/11/04 01:20:46;;;;;;;2.10;1.00;;;;;;;;;;4964788;28;20077;-76
2023/11/04 01:23:12;;;;;;;3.60;1.10;;;;;;;;;;4963110;28;20078;-77
2023/11/04 01:25:37;;;;;;;2.00;1.00;;;;;;;;;;4981446;28;20495;-76
2023/11/04 01:28:04;;;;;;;2.42;1.10;;;;;;;;;;4985883;28;20049;-76
2023/11/04 01:30:29;;;;;;;2.88;1.30;;;;;;;;;;4962849;28;20027;-76
2023/11/04 01:32:55;;;;;;;2.88;1.25;;;;;;;;;;4978030;28;20030;-77
2023/11/04 01:35:20;;;;;;;1.85;1.05;;;;;;;;;;4979835;28;20030;-76
2023/11/04 01:37:46;;;;;;;2.90;1.30;;;;;;;;;;4979822;28;20161;-76
2023/11/04 01:40:12;;;;;;;3.58;1.30;;;;;;;;;;4979904;28;20421;-76
2023/11/04 01:42:45;;;;;;;3.85;1.45;;;;;;;;;;4978142;28;20085;-76
2023/11/04 01:45:11;;;;;;;5.75;1.70;;;;;;;;;;4978098;28;20106;-76
2023/11/04 01:47:42;;;;;;;4.80;1.60;;;;;;;;;;4979889;28;20058;-76
2023/11/04 01:50:08;;;;;;;2.88;1.30;;;;;;;;;;4957878;28;20382;-77
2023/11/04 01:52:36;;;;;;;3.58;1.38;;;;;;;;;;4972307;28;20027;-76
2023/11/04 01:55:02;;;;;;;3.13;1.52;;;;;;;;;;4973680;28;20053;-77
2023/11/04 01:57:28;;;;;;;3.13;1.20;;;;;;;;;;4958333;28;20510;-76
2023/11/04 01:59:53;;;;;;;3.97;1.52;;;;;;;;;;4970583;28;20031;-76
2023/11/04 02:02:21;;;;;;;3.58;1.40;;;;;;;;;;4974613;28;20062;-76
2023/11/04 02:04:46;;;;;;;4.82;1.50;;;;;;;;;;4984646;28;20121;-76
2023/11/04 02:07:11;;;;;;;3.85;1.50;;;;;;;;;;4979105;28;20122;-77
2023/11/04 02:09:37;;;;;;;4.20;1.52;;;;;;;;;;4965335;28;20029;-77
2023/11/04 02:12:03;;;;;;;5.75;1.70;;;;;;;;;;4985277;28;20077;-76
2023/11/04 02:14:29;;;;;;;3.90;1.55;;;;;;;;;;4965788;28;20121;-76
2023/11/04 02:16:55;;;;;;;5.32;1.45;;;;;;;;;;4981889;28;20492;-76
2023/11/04 02:19:21;;;;;;;3.92;1.77;;;;;;;;;;4984283;28;20078;-76
2023/11/04 02:21:47;;;;;;;2.50;1.50;;;;;;;;;;4984611;28;20502;-76
2023/11/04 02:24:12;;;;;;;5.38;1.80;;;;;;;;;;4962101;28;20492;-76
2023/11/04 02:26:38;;;;;;;4.03;1.60;;;;;;;;;;4963749;28;20053;-76
2023/11/04 02:29:04;;;;;;;3.08;1.60;;;;;;;;;;4979661;28;20019;-76
2023/11/04 02:31:30;;;;;;;4.85;2.03;;;;;;;;;;4956837;28;20488;-77
2023/11/04 02:33:55;;;;;;;5.47;1.73;;;;;;;;;;4975484;28;20093;-76
2023/11/04 02:36:21;;;;;;;3.60;1.73;;;;;;;;;;4969138;28;20473;-76
2023/11/04 02:38:46;;;;;;;4.78;1.77;;;;;;;;;;4965429;28;20030;-76
2023/11/04 02:41:12;;;;;;;4.93;2.53;;;;;;;;;;4975828;28;20050;-76
2023/11/04 02:43:38;;;;;;;3.63;1.40;;;;;;;;;;4975114;28;20053;-76
2023/11/04 02:46:04;;;;;;;3.45;1.60;;;;;;;;;;4958716;28;20030;-76
2023/11/04 02:48:29;;;;;;;5.95;1.80;;;;;;;;;;4974506;28;20066;-76
2023/11/04 02:50:54;;;;;;;3.17;1.60;;;;;;;;;;4976520;28;20113;-76
2023/11/04 02:53:20;;;;;;;2.55;1.48;;;;;;;;;;4974843;28;20542;-77
2023/11/04 02:55:45;;;;;;;4.28;1.70;;;;;;;;;;4958655;28;20480;-76
2023/11/04 02:58:10;;;;;;;3.60;1.90;;;;;;;;;;4973589;28;20031;-77
2023/11/04 03:00:36;;;;;;;3.58;1.80;;;;;;;;;;4978584;28;20064;-77
2023/11/04 03:03:01;;;;;;;2.92;1.73;;;;;;;;;;4981039;28;20029;-76
2023/11/04 03:05:26;;;;;;;3.53;1.70;;;;;;;;;;4972614;28;20030;-76
2023/11/04 03:07:52;;;;;;;4.70;1.90;;;;;;;;;;4955376;28;20061;-76
2023/11/04 03:10:17;;;;;;;4.47;1.85;;;;;;;;;;4967963;28;20038;-76
2023/11/04 03:12:43;;;;;;;4.85;1.73;;;;;;;;;;4959303;28;20077;-77
2023/11/04 03:15:08;;;;;;;3.03;1.63;;;;;;;;;;4969715;28;20097;-77
2023/11/04 03:17:35;;;;;;;5.90;1.95;;;;;;;;;;4953308;28;20488;-77
2023/11/04 03:20:00;;;;;;;3.85;1.83;;;;;;;;;;4972195;28;20050;-76
2023/11/04 03:22:25;;;;;;;5.38;1.60;;;;;;;;;;4951056;28;20023;-77
2023/11/04 03:24:51;;;;;;;3.15;1.55;;;;;;;;;;4970649;28;20121;-76
2023/11/04 03:27:17;;;;;;;5.40;2.00;;;;;;;;;;4968860;28;20848;-77
2023/11/04 03:29:43;;;;;;;5.22;1.90;;;;;;;;;;4969084;28;20082;-76
2023/11/04 03:32:09;;;;;;;4.50;2.08;;;;;;;;;;4968675;28;20110;-77
2023/11/04 03:34:36;;;;;;;4.97;2.03;;;;;;;;;;4952305;28;20038;-76
2023/11/04 03:37:02;;;;;;;3.33;2.00;;;;;;;;;;4967235;28;20041;-79
2023/11/04 03:39:32;;;;;;;5.65;1.95;;;;;;;;;;4969381;28;20026;-79
2023/11/04 03:41:58;;;;;;;3.65;1.83;;;;;;;;;;4984104;28;20077;-79
2023/11/04 03:44:23;;;;;;;4.15;1.92;;;;;;;;;;4968199;28;20030;-79
2023/11/04 03:46:49;;;;;;;4.93;2.00;;;;;;;;;;4967171;28;20055;-79
2023/11/04 03:49:15;;;;;;;6.10;2.00;;;;;;;;;;4950079;28;20027;-78
2023/11/04 03:51:42;;;;;;;3.78;1.90;;;;;;;;;;4978634;28;20494;-79
2023/11/04 03:54:07;;;;;;;6.53;2.35;;;;;;;;;;4949804;28;20027;-79
2023/11/04 03:56:33;;;;;;;4.70;2.35;;;;;;;;;;4969078;28;20027;-79
2023/11/04 03:58:58;;;;;;;5.35;2.20;;;;;;;;;;4968546;28;20476;-79
2023/11/04 04:01:24;;;;;;;4.95;1.98;;;;;;;;;;4968366;28;20157;-79
2023/11/04 04:03:49;;;;;;;6.00;2.70;;;;;;;;;;4951947;28;20043;-79
2023/11/04 04:06:18;;;;;;;4.47;2.00;;;;;;;;;;4968525;28;20030;-79
2023/11/04 04:08:43;;;;;;;4.63;2.08;;;;;;;;;;4973495;28;20023;-79
2023/11/04 04:11:10;;;;;;;3.75;1.95;;;;;;;;;;4973855;28;20026;-79
2023/11/04 04:13:35;;;;;;;4.05;2.00;;;;;;;;;;4971497;28;20173;-79
2023/11/04 04:16:01;;;;;;;3.22;1.80;;;;;;;;;;4979736;28;20546;-79
2023/11/04 04:18:26;;;;;;;4.45;2.00;;;;;;;;;;4956194;28;20124;-79
2023/11/04 04:20:51;;;;;;;4.45;2.20;;;;;;;;;;4974710;28;20039;-79
2023/11/04 04:23:17;;;;;;;9.68;2.65;;;;;;;;;;4978675;28;20034;-79
2023/11/04 04:25:42;;;;;;;5.15;2.00;;;;;;;;;;4960153;28;20063;-79
2023/11/04 04:28:08;;;;;;;4.43;2.30;;;;;;;;;;4956411;28;20037;-79
2023/11/04 04:30:33;;;;;;;5.10;1.80;;;;;;;;;;4948991;28;20033;-79
2023/11/04 04:32:58;;;;;;;4.15;2.00;;;;;;;;;;4949652;28;20677;-79
2023/11/04 04:35:24;;;;;;;4.72;2.40;;;;;;;;;;4967080;28;20140;-79
2023/11/04 04:37:49;;;;;;;3.17;1.98;;;;;;;;;;4968171;28;20027;-79
2023/11/04 04:40:15;;;;;;;3.63;2.08;;;;;;;;;;4964886;28;20026;-79
2023/11/04 04:42:40;;;;;;;5.63;2.28;;;;;;;;;;4965900;28;20106;-79
2023/11/04 04:45:06;;;;;;;5.55;2.40;;;;;;;;;;4966353;28;20056;-79
2023/11/04 04:47:36;;;;;;;4.53;2.38;;;;;;;;;;4945715;28;20484;-79
2023/11/04 04:50:02;;;;;;;5.50;2.38;;;;;;;;;;4967138;28;20050;-79
2023/11/04 04:52:27;;;;;;;4.90;2.58;;;;;;;;;;4947205;28;20027;-79
2023/11/04 04:54:53;;;;;;;5.38;2.63;;;;;;;;;;4966333;28;20038;-79
2023/11/04 04:57:18;;;;;;;4.97;2.40;;;;;;;;;;4963984;28;20117;-79
2023/11/04 04:59:43;;;;;;;4.53;2.45;;;;;;;;;;4967090;28;20169;-79
2023/11/04 05:02:08;;;;;;;5.90;2.78;;;;;;;;;;4965420;28;20189;-79
2023/11/04 05:04:34;;;;;;;4.75;2.40;;;;;;;;;;4955727;28;20388;-79
2023/11/04 05:06:59;;;;;;;5.47;2.80;;;;;;;;;;4979874;28;20476;-79
2023/11/04 05:09:26;;;;;;;5.00;2.65;;;;;;;;;;4975322;28;20056;-79
2023/11/04 05:11:52;;;;;;;4.80;2.50;;;;;;;;;;4972971;28;20031;-79
2023/11/04 05:14:17;;;;;;;4.65;2.28;;;;;;;;;;4971687;28;20501;-79
2023/11/04 05:16:43;;;;;;;6.95;2.95;;;;;;;;;;4966658;28;20048;-79
2023/11/04 05:19:08;;;;;;;5.00;2.67;;;;;;;;;;4968276;28;20587;-78
2023/11/04 05:21:34;;;;;;;6.45;2.42;;;;;;;;;;4970831;28;20439;-79
2023/11/04 05:24:00;;;;;;;5.78;2.63;;;;;;;;;;4957702;28;20050;-79
2023/11/04 05:26:25;;;;;;;5.40;2.58;;;;;;;;;;4953444;28;20117;-79
2023/11/04 05:28:51;;;;;;;5.70;2.60;;;;;;;;;;4976195;28;20058;-79
2023/11/04 05:31:17;;;;;;;7.38;2.47;;;;;;;;;;4984548;28;20530;-79
2023/11/04 05:33:42;;;;;;;5.63;2.70;;;;;;;;;;4968904;28;20480;-80
2023/11/04 05:36:07;;;;;;;3.95;2.42;;;;;;;;;;4965958;28;20046;-80
2023/11/04 05:38:33;;;;;;;4.47;2.60;;;;;;;;;;4964746;28;20026;-79
2023/11/04 05:41:00;;;;;;;5.22;2.35;;;;;;;;;;4966397;28;20037;-79
2023/11/04 05:43:26;;;;;;;6.88;2.47;;;;;;;;;;4966276;28;20033;-79
2023/11/04 05:45:51;;;;;;;7.03;2.75;;;;;;;;;;4962967;28;20035;-79
2023/11/04 05:48:19;;;;;;;6.07;2.50;;;;;;;;;;4964668;28;20045;-79
2023/11/04 05:50:45;;;;;;;6.55;2.50;;;;;;;;;;4968038;28;20023;-79
2023/11/04 05:53:11;;;;;;;5.10;2.40;;;;;;;;;;4948652;28;20485;-79
2023/11/04 05:55:37;;;;;;;6.80;2.60;;;;;;;;;;4967167;28;20034;-76
2023/11/04 05:58:03;;;;;;;6.60;2.65;;;;;;;;;;4964908;28;20037;-77
2023/11/04 06:00:28;;;;;;;6.10;2.80;;;;;;;;;;4951569;28;20027;-77
2023/11/04 06:02:54;;;;;;;4.60;2.65;;;;;;;;;;4968819;28;20022;-77
2023/11/04 06:05:19;;;;;;;4.47;2.72;;;;;;;;;;4965812;28;20019;-77
2023/11/04 06:07:45;;;;;;;7.88;2.60;;;;;;;;;;4969304;28;20118;-76
2023/11/04 06:10:11;;;;;;;5.60;2.60;;;;;;;;;;4969943;28;20041;-76
2023/11/04 06:12:37;;;;;;;5.18;2.40;;;;;;;;;;4957215;28;20034;-76
2023/11/04 06:15:03;;;;;;;8.50;2.60;;;;;;;;;;4969610;28;20033;-77
2023/11/04 06:17:29;;;;;;;6.50;2.35;;;;;;;;;;4972383;28;20026;-77
2023/11/04 06:19:55;;;;;;;6.10;2.42;;;;;;;;;;4956778;28;20026;-76
2023/11/04 06:22:20;;;;;;;4.80;2.30;;;;;;;;;;4975936;28;20030;-77
2023/11/04 06:24:45;;;;;;;7.47;2.30;;;;;;;;;;4973201;28;20149;-77
2023/11/04 06:27:12;;;;;;;5.03;2.08;;;;;;;;;;4955855;28;20031;-76
2023/11/04 06:29:38;;;;;;;8.10;2.15;;;;;;;;;;4949967;28;20062;-76
2023/11/04 06:32:03;;;;;;;5.13;1.95;;;;;;;;;;4955295;28;20101;-76
2023/11/04 06:34:29;;;;;;;3.88;1.90;;;;;;;;;;4972671;28;20046;-77
2023/11/04 06:36:54;;;;;;;7.18;1.80;;;;;;;;;;4960442;28;20027;-77
2023/11/04 06:39:20;;;;;;;4.80;1.80;;;;;;;;;;4973149;28;20031;-77
2023/11/04 06:41:45;;;;;;;4.65;1.77;;;;;;;;;;4973589;28;20050;-76
2023/11/04 06:44:10;;;;;;;6.30;1.70;;;;;;;;;;4954809;28;20030;-77
2023/11/04 06:46:39;;;;;;;5.65;1.60;;;;;;;;;;4980515;28;20623;-76
2023/11/04 06:49:04;;;;;;;6.03;2.08;;;;;;;;;;4957959;28;20030;-76
2023/11/04 06:51:29;;;;;;;6.38;1.90;;;;;;;;;;4954653;28;20162;-77
2023/11/04 06:53:56;;;;;;;5.22;1.95;;;;;;;;;;4954774;28;20062;-76
2023/11/04 06:56:24;;;;;;;6.32;2.00;;;;;;;;;;4980983;28;20039;-76
2023/11/04 06:58:50;;;;;;;5.20;1.85;;;;;;;;;;4970541;28;20089;-77
2023/11/04 07:01:15;;;;;;;5.32;1.73;;;;;;;;;;4953388;28;20158;-77
2023/11/04 07:03:45;;;;;;;7.63;2.10;;;;;;;;;;4955512;28;20133;-77
2023/11/04 07:06:17;;;;;;;7.65;2.05;;;;;;;;;;4975571;28;20030;-78
2023/11/04 07:08:44;;;;;;;6.47;1.88;;;;;;;;;;4973744;28;20039;-79
2023/11/04 07:11:13;;;;;;;4.15;1.73;;;;;;;;;;4971035;28;20789;-79
2023/11/04 07:13:42;;;;;;;6.43;2.00;;;;;;;;;;4957931;28;20027;-79
2023/11/04 07:16:09;;;;;;;3.42;1.70;;;;;;;;;;4973451;28;20037;-79
2023/11/04 07:18:35;;;;;;;3.90;1.50;;;;;;;;;;4971350;28;20030;-79
2023/11/04 07:21:01;;;;;;;4.60;1.80;;;;;;;;;;4971811;28;20028;-79
2023/11/04 07:23:28;;;;;;;4.25;1.48;;;;;;;;;;4968804;28;21831;-79
2023/11/04 07:25:54;;;;;;;3.92;1.50;;;;;;;;;;4975051;28;20497;-79
2023/11/04 07:28:20;;;;;;;8.93;1.70;;;;;;;;;;4974211;28;20137;-78
2023/11/04 07:30:45;;;;;;;5.32;1.80;;;;;;;;;;4966926;28;20022;-79
2023/11/04 07:33:10;;;;;;;5.50;1.65;;;;;;;;;;4970747;28;20070;-80
2023/11/04 07:35:36;;;;;;;4.93;1.58;;;;;;;;;;4953863;28;20043;-79
2023/11/04 07:38:02;;;;;;;4.82;1.52;;;;;;;;;;4971677;28;20035;-79
2023/11/04 07:40:27;;;;;;;3.80;1.23;;;;;;;;;;4966610;28;20046;-79
2023/11/04 07:42:53;;;;;;;3.97;1.55;;;;;;;;;;4967906;28;20027;-78
2023/11/04 07:45:19;;;;;;;5.95;1.73;;;;;;;;;;4968789;28;20117;-78
2023/11/04 07:47:45;;;;;;;2.78;1.38;;;;;;;;;;4950070;28;20515;-79
2023/11/04 07:50:11;;;;;;;7.50;2.08;;;;;;;;;;4968128;28;20034;-78
2023/11/04 07:52:37;;;;;;;5.97;1.92;;;;;;;;;;4966454;28;20121;-78
2023/11/04 07:55:06;;;;;;;3.55;1.33;;;;;;;;;;4968902;28;20030;-79
2023/11/04 07:57:34;;;;;;;3.28;1.50;;;;;;;;;;4967803;28;20026;-79
2023/11/04 08:00:04;;;;;;;4.10;1.60;;;;;;;;;;4966926;28;20021;-79
2023/11/04 08:02:30;;;;;;;6.70;1.70;;;;;;;;;;4968305;28;20058;-79
2023/11/04 08:04:55;;;;;;;6.50;1.52;;;;;;;;;;4967120;28;20026;-79
2023/11/04 08:07:22;;;;;;;4.57;1.65;;;;;;;;;;4953180;28;20049;-78
2023/11/04 08:09:48;;;;;;;5.57;1.80;;;;;;;;;;4953633;28;20038;-79
2023/11/04 08:12:15;;;;;;;5.68;1.58;;;;;;;;;;4971769;28;20037;-79
2023/11/04 08:14:40;;;;;;;6.63;2.33;;;;;;;;;;4970313;28;20165;-79
2023/11/04 08:17:06;;;;;;;3.85;1.67;;;;;;;;;;4959542;28;20125;-76
2023/11/04 08:19:31;;;;;;;6.40;1.85;;;;;;;;;;4953963;28;20027;-76
2023/11/04 08:21:56;;;;;;;3.92;1.60;;;;;;;;;;4959240;28;20030;-77
2023/11/04 08:24:22;;;;;;;4.20;1.50;;;;;;;;;;4957528;28;20045;-76
2023/11/04 08:26:47;;;;;;;5.82;1.67;;;;;;;;;;4970979;28;21609;-77
2023/11/04 08:29:13;;;;;;;4.38;1.77;;;;;;;;;;4969125;28;20034;-76
2023/11/04 08:31:39;;;;;;;5.85;1.60;;;;;;;;;;4974909;28;20571;-76
2023/11/04 08:34:06;;;;;;;3.58;1.40;;;;;;;;;;4948642;28;20039;-77
2023/11/04 08:36:31;;;;;;;4.25;1.67;;;;;;;;;;4967937;28;20073;-76
2023/11/04 08:38:57;;;;;;;6.32;1.33;;;;;;;;;;4948576;28;20030;-77
2023/11/04 08:41:23;;;;;;;4.18;1.48;;;;;;;;;;4965416;28;20034;-76
2023/11/04 08:43:48;;;;;;;3.10;1.50;;;;;;;;;;4970193;28;20452;-76
2023/11/04 08:46:18;;;;;;;3.63;1.40;;;;;;;;;;4951471;28;20029;-76
2023/11/04 08:48:44;;;;;;;4.88;1.52;;;;;;;;;;4949604;28;20041;-77
2023/11/04 08:51:11;;;;;;;3.55;1.30;;;;;;;;;;4970250;28;20026;-76
2023/11/04 08:53:37;;;;;;;4.40;1.45;;;;;;;;;;4951027;28;20128;-77
2023/11/04 08:56:06;;;;;;;3.25;1.58;;;;;;;;;;4970392;28;20500;-76
2023/11/04 08:58:31;;;;;;;7.57;1.67;;;;;;;;;;4967004;28;20057;-77
2023/11/04 09:00:56;;;;;;;3.53;1.23;;;;;;;;;;4967506;28;20509;-76
2023/11/04 09:03:25;;;;;;;2.63;1.25;;;;;;;;;;4967175;28;20037;-77
2023/11/04 09:05:50;;;;;;;3.38;1.60;;;;;;;;;;4971099;28;20481;-76
2023/11/04 09:08:16;;;;;;;3.92;1.70;;;;;;;;;;4949532;28;20042;-76
2023/11/04 09:10:42;;;;;;;6.95;1.70;;;;;;;;;;4971402;28;20532;-77
2023/11/04 09:13:08;;;;;;;2.70;1.40;;;;;;;;;;4969905;28;20035;-76
2023/11/04 09:15:34;;;;;;;5.22;1.50;;;;;;;;;;4932285;28;20042;-76
2023/11/04 09:17:59;;;;;;;4.90;1.88;;;;;;;;;;4966483;28;20023;-77
2023/11/04 09:20:25;;;;;;;3.50;1.60;;;;;;;;;;4964952;28;20035;-76
2023/11/04 09:22:50;;;;;;;5.28;2.00;;;;;;;;;;4966776;28;20034;-76
2023/11/04 09:25:16;;;;;;;5.38;1.45;;;;;;;;;;4947992;28;20418;-77
2023/11/04 09:27:41;;;;;;;4.00;1.25;;;;;;;;;;4955109;28;20050;-76
2023/11/04 09:30:08;;;;;;;3.28;1.35;;;;;;;;;;4963112;28;20030;-76
2023/11/04 09:32:34;;;;;;;4.25;1.50;;;;;;;;;;4964862;28;20035;-76
2023/11/04 09:34:59;;;;;;;3.97;1.38;;;;;;;;;;4972509;28;20404;-76
2023/11/04 09:37:25;;;;;;;2.97;1.20;;;;;;;;;;4965802;28;20105;-77
2023/11/04 09:39:51;;;;;;;4.80;1.58;;;;;;;;;;4970778;28;20034;-76
2023/11/04 09:42:16;;;;;;;4.80;1.27;;;;;;;;;;4964491;28;20046;-76
2023/11/04 09:44:42;;;;;;;2.72;1.20;;;;;;;;;;4956865;28;20034;-76
2023/11/04 09:47:08;;;;;;;4.65;1.20;;;;;;;;;;4961103;28;20942;-76
2023/11/04 09:49:33;;;;;;;4.97;1.50;;;;;;;;;;4973846;28;20034;-76
2023/11/04 09:52:00;;;;;;;5.05;1.25;;;;;;;;;;4973140;28;20030;-76
2023/11/04 09:54:28;;;;;;;4.15;1.20;;;;;;;;;;4956612;28;20023;-76
2023/11/04 09:56:55;;;;;;;4.18;1.50;;;;;;;;;;4959025;28;20035;-77
2023/11/04 09:59:20;;;;;;;5.57;1.30;;;;;;;;;;4962711;28;20057;-76
2023/11/04 10:01:46;;;;;;;3.75;1.20;;;;;;;;;;4969168;28;20026;-76
2023/11/04 10:04:11;;;;;;;3.88;1.15;;;;;;;;;;4967264;28;20554;-76
2023/11/04 10:06:36;;;;;;;2.95;1.17;;;;;;;;;;4969816;28;20066;-76
2023/11/04 10:09:02;;;;;;;2.92;1.20;;;;;;;;;;4948272;28;20417;-76
2023/11/04 10:11:28;;;;;;;6.10;1.00;;;;;;;;;;4948121;28;20125;-80
2023/11/04 10:13:54;;;;;;;3.40;1.00;;;;;;;;;;4949449;28;20495;-76
2023/11/04 10:16:19;;;;;;;3.88;1.10;;;;;;;;;;4954942;28;20093;-76
2023/11/04 10:18:47;;;;;;;3.80;1.15;;;;;;;;;;4969919;28;20129;-76
2023/11/04 10:21:12;;;;;;;6.50;1.20;;;;;;;;;;4963564;28;20031;-77
2023/11/04 10:23:37;;;;;;;3.05;1.00;;;;;;;;;;4959553;28;20030;-76
2023/11/04 10:26:03;;;;;;;3.30;1.10;;;;;;;;;;4956056;28;20041;-76
2023/11/04 10:28:30;;;;;;;3.15;1.00;;;;;;;;;;4951180;28;20030;-77
2023/11/04 10:31:04;;;;;;;2.00;0.90;;;;;;;;;;4968956;28;20053;-76
2023/11/04 10:33:35;;;;;;;5.22;0.98;;;;;;;;;;4976919;28;20085;-76
2023/11/04 10:36:05;;;;;;;2.38;0.90;;;;;;;;;;4971417;28;20440;-77
2023/11/04 10:38:34;;;;;;;3.17;1.08;;;;;;;;;;4979821;28;20038;-76
2023/11/04 10:41:02;;;;;;;2.75;1.00;;;;;;;;;;4942880;28;20054;-76
2023/11/04 10:43:37;;;;;;;3.42;0.90;;;;;;;;;;4967315;28;20026;-76
2023/11/04 10:46:09;;;;;;;4.25;0.90;;;;;;;;;;4962664;28;20074;-76
2023/11/04 10:48:53;;;;;;;4.55;1.05;;;;;;;;;;4949057;28;20084;-76
2023/11/04 10:51:24;;;;;;;4.25;1.20;;;;;;;;;;4961308;28;20055;-76
2023/11/04 10:53:59;;;;;;;2.70;1.00;;;;;;;;;;4960371;28;20035;-76
2023/11/04 10:56:29;;;;;;;3.75;1.15;;;;;;;;;;4961659;28;20600;-76
2023/11/04 10:59:07;;;;;;;1.92;0.70;;;;;;;;;;4956588;28;20109;-76
2023/11/04 11:01:34;;;;;;;8.60;1.67;;;;;;;;;;4967132;28;20038;-76
2023/11/04 11:04:02;;;;;;;3.72;1.00;;;;;;;;;;4970444;28;20425;-76
2023/11/04 11:06:30;;;;;;;3.03;0.90;;;;;;;;;;4934096;28;20039;-76
2023/11/04 11:08:56;;;;;;;3.40;0.95;;;;;;;;;;4965880;28;20520;-76
2023/11/04 11:11:32;;;;;;;6.22;1.17;;;;;;;;;;4943649;28;20412;-76
2023/11/04 11:13:58;;;;;;;4.45;0.80;;;;;;;;;;4969394;28;20031;-75
2023/11/04 11:16:25;;;;;;;2.35;0.80;;;;;;;;;;4940617;28;20073;-77
2023/11/04 11:18:52;;;;;;;2.05;0.77;;;;;;;;;;4952456;28;20026;-76
2023/11/04 11:21:18;;;;;;;2.35;0.82;;;;;;;;;;4947897;28;20040;-76
2023/11/04 11:23:44;;;;;;;2.25;0.70;;;;;;;;;;4968909;28;20054;-76
2023/11/04 11:26:11;;;;;;;2.97;0.93;;;;;;;;;;4967538;28;20564;-76
2023/11/04 11:28:39;;;;;;;4.10;0.85;;;;;;;;;;4952415;28;20034;-77
2023/11/04 11:31:11;;;;;;;3.35;0.70;;;;;;;;;;4966039;28;20077;-76
2023/11/04 11:33:39;;;;;;;5.47;1.20;;;;;;;;;;4974535;28;20504;-76
2023/11/04 11:36:07;;;;;;;4.07;1.00;;;;;;;;;;4967672;28;20070;-76
2023/11/04 11:38:33;;;;;;;4.55;0.80;;;;;;;;;;4949797;28;20038;-77
2023/11/04 11:41:06;;;;;;;2.53;0.82;;;;;;;;;;4964174;28;20034;-77
2023/11/04 11:43:33;;;;;;;1.70;0.98;;;;;;;;;;4977101;28;20160;-76
2023/11/04 11:45:59;;;;;;;5.18;1.05;;;;;;;;;;4954704;28;20042;-80
2023/11/04 11:48:26;;;;;;;3.42;1.08;;;;;;;;;;4970819;28;20072;-81
2023/11/04 11:50:52;;;;;;;3.45;0.98;;;;;;;;;;4962150;28;20116;-80
2023/11/04 11:53:17;;;;;;;4.72;0.82;;;;;;;;;;4976275;28;20031;-80
2023/11/04 11:55:56;;;;;;;2.58;0.70;;;;;;;;;;4972377;28;20447;-79
2023/11/04 11:58:22;;;;;;;4.13;1.02;;;;;;;;;;4979876;28;20038;-80
2023/11/04 12:00:49;;;;;;;3.70;1.08;;;;;;;;;;4969830;28;20497;-80
2023/11/04 12:03:14;;;;;;;3.10;0.80;;;;;;;;;;4934696;28;20045;-81
2023/11/04 12:05:40;;;;;;;2.15;0.82;;;;;;;;;;4973105;28;20038;-80
2023/11/04 12:08:06;;;;;;;4.25;0.90;;;;;;;;;;4965579;28;20046;-80
2023/11/04 12:10:32;;;;;;;3.10;0.80;;;;;;;;;;4966866;28;20030;-80
2023/11/04 12:12:59;;;;;;;5.07;0.90;;;;;;;;;;4961996;28;20041;-80
2023/11/04 12:15:25;;;;;;;3.25;1.05;;;;;;;;;;4977237;28;20030;-79
2023/11/04 12:17:56;;;;;;;3.58;0.70;;;;;;;;;;4971828;28;20112;-80
2023/11/04 12:20:26;;;;;;;2.38;0.60;;;;;;;;;;4962210;28;20027;-79
2023/11/04 12:22:53;;;;;;;4.28;0.88;;;;;;;;;;4951819;28;20031;-79
2023/11/04 12:25:19;;;;;;;3.25;0.82;;;;;;;;;;4967442;28;20030;-79
2023/11/04 12:27:46;;;;;;;2.25;0.77;;;;;;;;;;4968848;28;20034;-79
2023/11/04 12:30:14;;;;;;;4.32;1.15;;;;;;;;;;4952489;28;20053;-78
2023/11/04 12:32:40;;;;;;;2.88;0.70;;;;;;;;;;4950727;28;20121;-79
2023/11/04 12:35:05;;;;;;;4.32;0.80;;;;;;;;;;4959414;28;20156;-78
2023/11/04 12:37:30;;;;;;;5.13;1.38;;;;;;;;;;4968154;28;20042;-78
2023/11/04 12:39:56;;;;;;;3.42;0.90;;;;;;;;;;4957785;28;20688;-78
2023/11/04 12:42:22;;;;;;;2.80;0.70;;;;;;;;;;4966734;28;20401;-77
2023/11/04 12:44:52;;;;;;;2.45;0.68;;;;;;;;;;4966862;28;20031;-78
2023/11/04 12:47:25;;;;;;;3.85;1.00;;;;;;;;;;4968994;28;20041;-78
2023/11/04 12:49:50;;;;;;;3.15;0.90;;;;;;;;;;4968081;28;20030;-77
2023/11/04 12:52:16;;;;;;;4.32;1.10;;;;;;;;;;4947938;28;20089;-78
2023/11/04 12:54:48;;;;;;;2.92;0.98;;;;;;;;;;4965012;28;20038;-78
2023/11/04 12:57:14;;;;;;;3.28;1.00;;;;;;;;;;4951101;28;20038;-78
2023/11/04 12:59:39;;;;;;;2.72;0.93;;;;;;;;;;4966449;28;20097;-78
2023/11/04 13:02:06;;;;;;;3.75;0.90;;;;;;;;;;4970589;28;20117;-78
2023/11/04 13:04:32;;;;;;;2.17;0.90;;;;;;;;;;4973850;28;20093;-78
2023/11/04 13:06:58;;;;;;;2.78;0.80;;;;;;;;;;4961294;28;20539;-78
2023/11/04 13:09:29;;;;;;;2.92;1.00;;;;;;;;;;4965090;28;20058;-78
2023/11/04 13:11:54;;;;;;;2.88;0.90;;;;;;;;;;4967098;28;20515;-78
2023/11/04 13:14:19;;;;;;;2.55;0.70;;;;;;;;;;4965716;28;20041;-77
2023/11/04 13:16:45;;;;;;;2.88;0.80;;;;;;;;;;4965278;28;20039;-78
2023/11/04 13:19:10;;;;;;;2.45;0.95;;;;;;;;;;4968024;28;20034;-78
2023/11/04 13:21:36;;;;;;;3.33;1.20;;;;;;;;;;4949139;28;20042;-77
2023/11/04 13:24:03;;;;;;;3.00;0.75;;;;;;;;;;4949186;28;20500;-78
2023/11/04 13:26:29;;;;;;;3.78;1.17;;;;;;;;;;4967157;28;20088;-78
2023/11/04 13:28:55;;;;;;;4.38;1.10;;;;;;;;;;4967671;28;20035;-78
2023/11/04 13:31:20;;;;;;;4.20;0.90;;;;;;;;;;4950498;28;20591;-78
2023/11/04 13:33:46;;;;;;;2.72;1.02;;;;;;;;;;4965765;28;20081;-77
2023/11/04 13:36:11;;;;;;;2.67;1.02;;;;;;;;;;4970409;28;20034;-78
2023/11/04 13:38:37;;;;;;;3.65;1.20;;;;;;;;;;4965237;28;20039;-78
2023/11/04 13:41:03;;;;;;;3.42;1.10;;;;;;;;;;4954822;28;20058;-77
2023/11/04 13:43:29;;;;;;;3.00;0.93;;;;;;;;;;4963789;28;20042;-78
2023/11/04 13:45:54;;;;;;;3.50;1.42;;;;;;;;;;4970066;28;20022;-78
2023/11/04 13:48:20;;;;;;;2.83;0.98;;;;;;;;;;4964557;28;20034;-77
2023/11/04 13:50:45;;;;;;;2.20;0.80;;;;;;;;;;4960338;28;20718;-78
2023/11/04 13:53:10;;;;;;;1.88;0.80;;;;;;;;;;4977559;28;20048;-78
2023/11/04 13:55:36;;;;;;;2.42;1.35;;;;;;;;;;4957343;28;20030;-78
2023/11/04 13:58:01;;;;;;;3.42;1.10;;;;;;;;;;4965404;28;20621;-78
2023/11/04 14:00:27;;;;;;;2.38;1.17;;;;;;;;;;4942750;28;20031;-78
2023/11/04 14:02:52;;;;;;;3.47;1.27;;;;;;;;;;4962050;28;20512;-78
2023/11/04 14:05:18;;;;;;;2.45;1.00;;;;;;;;;;4945604;28;20031;-77
2023/11/04 14:07:43;;;;;;;3.33;1.05;;;;;;;;;;4949425;28;20038;-77
2023/11/04 14:10:09;;;;;;;2.85;1.05;;;;;;;;;;4957192;28;20042;-77
2023/11/04 14:12:35;;;;;;;2.65;0.80;;;;;;;;;;4957757;28;20480;-77
2023/11/04 14:15:01;;;;;;;1.48;0.75;;;;;;;;;;4967750;28;20043;-77
2023/11/04 14:17:28;;;;;;;3.72;0.90;;;;;;;;;;4949229;28;20037;-77
2023/11/04 14:19:53;;;;;;;1.90;0.90;;;;;;;;;;4960072;28;20022;-77
2023/11/04 14:22:19;;;;;;;1.67;0.98;;;;;;;;;;4939591;28;20570;-77
2023/11/04 14:24:44;;;;;;;1.92;1.00;;;;;;;;;;4959593;28;20038;-77
2023/11/04 14:27:10;;;;;;;1.98;0.90;;;;;;;;;;4944500;28;20026;-76
2023/11/04 14:29:37;;;;;;;3.00;1.00;;;;;;;;;;4963130;28;20758;-77
2023/11/04 14:32:03;;;;;;;1.92;0.90;;;;;;;;;;4969234;28;20769;-76
2023/11/04 14:34:28;;;;;;;2.75;1.20;;;;;;;;;;4976981;28;20117;-76
2023/11/04 14:36:54;;;;;;;2.08;0.93;;;;;;;;;;4961935;28;20031;-76